Mitsukawa Maru — JD2495 — position and weather

sailwx.info

Track history (hours):
 
Tides and Currents Weather Stations Pressure Air Temp Water Temp Dewpoint Dewpoint Depression Visibility Wind Speed Wind Dir Waves Ship Positions

Mitsukawa Maru

Last reported at 2017-Mar-28 08:31 UTC. Time now 2017-Mar-28 17:53 UTC.
Position N 34°04' E 134°56'.

Length 105 m; draft 4.2 m.

Type: Cargo ship. MMSI: 431000326.

Date/timePositionNaut miles runAvg speedWind from/ knotsBaromVisibWave heightAir tempDewpointWater temp
2017-Mar-28 08:31N 34°04' E 134°56'1414.1
2017-Mar-28 07:32N 34°18' E 134°59'1414.1
2017-Mar-28 06:33N 34°32' E 135°02'124 5.9
2017-Mar-27 09:33N 33°55' E 132°39'1312.8
2017-Mar-27 08:33N 33°46' E 132°28'1312.4
2017-Mar-27 07:32N 33°37' E 132°17'3 0.3
2017-Mar-26 20:32N 33°35' E 132°14'1212.6
2017-Mar-26 19:34N 33°43' E 132°25'1313.2
2017-Mar-26 18:33N 33°53' E 132°36'8 0.4
2017-Mar-25 22:33N 33°58' E 132°44'1313.6
2017-Mar-25 21:33N 33°49' E 132°32'1413.0
2017-Mar-25 20:27N 33°39' E 132°19'4 0.3
2017-Mar-25 09:33N 33°36' E 132°16'1313.0
2017-Mar-25 08:32N 33°46' E 132°28'1413.2
2017-Mar-25 07:29N 33°56' E 132°39'1 0.1
2017-Mar-24 10:33N 33°56' E 132°41'1312.6
2017-Mar-24 09:34N 33°47' E 132°30'1312.7
2017-Mar-24 08:33N 33°38' E 132°19'2812.1
2017-Mar-24 06:16N 33°16' E 131°60'23 2.6
2017-Mar-23 21:24N 33°35' E 132°13'1113.3
2017-Mar-23 20:33N 33°43' E 132°24'1313.2
2017-Mar-23 19:33N 33°52' E 132°35'6 0.2
2017-Mar-22 09:33N 33°56' E 132°41'1212.3
2017-Mar-22 08:33N 33°47' E 132°30'1212.5
2017-Mar-22 07:33N 33°38' E 132°20'2511.9
2017-Mar-22 05:26N 33°19' E 131°60'379 9.5
2017-Mar-20 13:22N 34°56' E 139°23'1113.0
2017-Mar-20 12:33N 35°02' E 139°33'1313.0
2017-Mar-20 11:33N 35°11' E 139°45'1010.4
2017-Mar-20 10:33N 35°21' E 139°42'1212.0
2017-Mar-20 09:33N 35°30' E 139°52'1312.5
2017-Mar-20 08:33N 35°35' E 140°06'1 0.1
2017-Mar-19 23:16N 35°35' E 140°07'1 0.7
2017-Mar-19 22:17N 35°35' E 140°06'6 8.5
2017-Mar-19 21:33N 35°33' E 139°59'0 0.0
2017-Mar-19 20:33N 35°33' E 139°59'1010.3
2017-Mar-19 19:33N 35°27' E 139°49'1010.3
2017-Mar-19 18:33N 35°17' E 139°45'1111.2
2017-Mar-19 17:33N 35°06' E 139°45'1111.4
2017-Mar-19 16:33N 34°58' E 139°34'  
Track history (hours):
 
Tides and Currents Weather Stations Pressure Air Temp Water Temp Dewpoint Dewpoint Depression Visibility Wind Speed Wind Dir Waves Ship Positions

Mitsukawa Maru

Last reported at 2017-Mar-28 08:31 UTC. Time now 2017-Mar-28 17:53 UTC.
Position N 34°04' E 134°56'.

Length 105 m; draft 4.2 m.

Type: Cargo ship. MMSI: 431000326.

Date/timePositionNaut miles runAvg speedWind from/ knotsBaromVisibWave heightAir tempDewpointWater temp
2017-Mar-28 08:31N 34°04' E 134°56'1414.1
2017-Mar-28 07:32N 34°18' E 134°59'1414.1
2017-Mar-28 06:33N 34°32' E 135°02'124 5.9
2017-Mar-27 09:33N 33°55' E 132°39'1312.8
2017-Mar-27 08:33N 33°46' E 132°28'1312.4
2017-Mar-27 07:32N 33°37' E 132°17'3 0.3
2017-Mar-26 20:32N 33°35' E 132°14'1212.6
2017-Mar-26 19:34N 33°43' E 132°25'1313.2
2017-Mar-26 18:33N 33°53' E 132°36'8 0.4
2017-Mar-25 22:33N 33°58' E 132°44'1313.6
2017-Mar-25 21:33N 33°49' E 132°32'1413.0
2017-Mar-25 20:27N 33°39' E 132°19'4 0.3
2017-Mar-25 09:33N 33°36' E 132°16'1313.0
2017-Mar-25 08:32N 33°46' E 132°28'1413.2
2017-Mar-25 07:29N 33°56' E 132°39'1 0.1
2017-Mar-24 10:33N 33°56' E 132°41'1312.6
2017-Mar-24 09:34N 33°47' E 132°30'1312.7
2017-Mar-24 08:33N 33°38' E 132°19'2812.1
2017-Mar-24 06:16N 33°16' E 131°60'23 2.6
2017-Mar-23 21:24N 33°35' E 132°13'1113.3
2017-Mar-23 20:33N 33°43' E 132°24'1313.2
2017-Mar-23 19:33N 33°52' E 132°35'6 0.2
2017-Mar-22 09:33N 33°56' E 132°41'1212.3
2017-Mar-22 08:33N 33°47' E 132°30'1212.5
2017-Mar-22 07:33N 33°38' E 132°20'2511.9
2017-Mar-22 05:26N 33°19' E 131°60'379 9.5
2017-Mar-20 13:22N 34°56' E 139°23'1113.0
2017-Mar-20 12:33N 35°02' E 139°33'1313.0
2017-Mar-20 11:33N 35°11' E 139°45'1010.4
2017-Mar-20 10:33N 35°21' E 139°42'1212.0
2017-Mar-20 09:33N 35°30' E 139°52'1312.5
2017-Mar-20 08:33N 35°35' E 140°06'1 0.1
2017-Mar-19 23:16N 35°35' E 140°07'1 0.7
2017-Mar-19 22:17N 35°35' E 140°06'6 8.5
2017-Mar-19 21:33N 35°33' E 139°59'0 0.0
2017-Mar-19 20:33N 35°33' E 139°59'1010.3
2017-Mar-19 19:33N 35°27' E 139°49'1010.3
2017-Mar-19 18:33N 35°17' E 139°45'1111.2
2017-Mar-19 17:33N 35°06' E 139°45'1111.4
2017-Mar-19 16:33N 34°58' E 139°34'  

Dump ship's entire track history